Apiaca, Brazil
Current Conditions -  °F | °C
As of 11:00 PM on Friday 19 Dec 2014 (Local Time) from SBCP Reporting Station
Clear Clear  
Wind Chill: 79°   Ceiling: Unl
Heat Index: 82°   Visibility: 6mi
Dew Point: 75°   Wind: 12mph
Humidity: 89%   Direction: 70°ENE
Pressure: 29.83"   Gusts: NA
Location:  21.15°S, 41.57°W
Report Text: SBCP 200100Z 07010KT CAVOK 26/24 Q1010
Loading
Personal Weather Stations






























Interactive Weather Map New forecast layout! Learn more

10-Day Weather Forecast

Advertisements
Track Severe Weather on mobile